Time;durP1;ratioP1;P1;durP2;ratioP2;P2;SDS_P1;SDS_P2;PMS_P1;PMS_P2;Temp;Humidity;BMP_temperature;BMP_pressure;BME280_temperature;BME280_humidity;BME280_pressure;Samples;Min_cycle;Max_cycle;Signal;HPM_P1;HPM_P2
2021/08/08 00:01:09;;;;;;;5.20;2.30;;;16.50;90.10;;;;;;5038020;28;20025;-80
2021/08/08 00:03:34;;;;;;;7.97;3.20;;;16.50;90.40;;;;;;5037821;28;20033;-80
2021/08/08 00:06:00;;;;;;;7.88;3.17;;;16.60;90.50;;;;;;5037875;28;20021;-80
2021/08/08 00:08:29;;;;;;;5.30;2.58;;;16.60;90.80;;;;;;5055720;28;20358;-80
2021/08/08 00:10:55;;;;;;;7.33;3.13;;;16.50;89.90;;;;;;5055897;28;20031;-79
2021/08/08 00:13:21;;;;;;;4.75;2.55;;;16.50;90.30;;;;;;5037784;28;20100;-80
2021/08/08 00:15:46;;;;;;;3.42;1.80;;;16.60;90.50;;;;;;5038018;28;20021;-80
2021/08/08 00:18:12;;;;;;;5.72;2.35;;;16.60;90.40;;;;;;5037510;28;20029;-80
2021/08/08 00:20:38;;;;;;;7.70;3.30;;;16.60;90.40;;;;;;5055761;28;20473;-79
2021/08/08 00:23:04;;;;;;;5.07;2.20;;;16.60;90.50;;;;;;5037685;28;20025;-81
2021/08/08 00:25:30;;;;;;;9.68;3.95;;;16.60;90.20;;;;;;5037548;28;20017;-78
2021/08/08 00:27:55;;;;;;;6.72;3.97;;;16.60;90.90;;;;;;5037670;28;20051;-80
2021/08/08 00:30:21;;;;;;;6.13;3.22;;;16.50;90.70;;;;;;5037716;28;20017;-79
2021/08/08 00:32:47;;;;;;;5.22;2.53;;;16.60;90.80;;;;;;5037013;28;20090;-79
2021/08/08 00:35:13;;;;;;;8.05;2.67;;;16.50;90.30;;;;;;5038017;28;20119;-80
2021/08/08 00:37:43;;;;;;;7.93;3.33;;;16.50;90.40;;;;;;5041238;28;20032;-78
2021/08/08 00:40:11;;;;;;;7.15;3.10;;;16.50;90.60;;;;;;5062528;28;20035;-79
2021/08/08 00:42:37;;;;;;;6.32;3.85;;;16.50;90.20;;;;;;5037842;28;20024;-78
2021/08/08 00:45:04;;;;;;;7.35;3.83;;;16.50;90.20;;;;;;5036425;28;20014;-77
2021/08/08 00:47:30;;;;;;;7.13;2.72;;;16.50;90.50;;;;;;5036948;28;20124;-78
2021/08/08 00:49:56;;;;;;;8.25;4.60;;;16.50;90.40;;;;;;5035902;28;20116;-78
2021/08/08 00:52:22;;;;;;;9.95;5.25;;;16.50;90.90;;;;;;5054650;28;20514;-77
2021/08/08 00:54:47;;;;;;;9.85;5.28;;;16.50;91.10;;;;;;5036763;28;20017;-78
2021/08/08 00:57:13;;;;;;;7.32;3.60;;;16.50;91.20;;;;;;5035190;28;20025;-78
2021/08/08 00:59:38;;;;;;;6.72;3.40;;;16.50;90.30;;;;;;5036311;28;20040;-76
2021/08/08 01:02:05;;;;;;;9.93;4.55;;;16.40;90.50;;;;;;5036874;28;20025;-77
2021/08/08 01:04:35;;;;;;;8.98;4.25;;;16.40;90.70;;;;;;5036472;28;20040;-78
2021/08/08 01:07:10;;;;;;;;;;;16.40;91.30;;;;;;5036133;28;20044;-79
2021/08/08 01:09:44;;;;;;;12.52;6.07;;;16.40;91.30;;;;;;5053414;28;20273;-79
2021/08/08 01:12:09;;;;;;;12.82;7.22;;;16.40;91.40;;;;;;5054588;28;20021;-77
2021/08/08 01:14:36;;;;;;;9.85;5.97;;;16.40;92.00;;;;;;5036834;28;20017;-79
2021/08/08 01:17:04;;;;;;;11.65;5.88;;;16.40;92.10;;;;;;5036145;28;20020;-77
2021/08/08 01:19:37;;;;;;;10.07;4.55;;;16.30;91.90;;;;;;5054869;28;20033;-77
2021/08/08 01:22:05;;;;;;;7.88;3.90;;;16.40;91.50;;;;;;5036508;28;20025;-78
2021/08/08 01:24:31;;;;;;;13.57;7.95;;;16.30;91.10;;;;;;5064717;28;20052;-77
2021/08/08 01:26:57;;;;;;;12.60;6.00;;;16.30;91.60;;;;;;5050330;28;20032;-77
2021/08/08 01:29:22;;;;;;;15.15;8.10;;;16.30;91.70;;;;;;5046517;28;20025;-78
2021/08/08 01:31:53;;;;;;;18.65;8.35;;;16.30;92.10;;;;;;5040913;28;20044;-78
2021/08/08 01:34:19;;;;;;;19.13;8.38;;;16.30;92.20;;;;;;5037885;28;20036;-77
2021/08/08 01:36:46;;;;;;;12.23;7.45;;;16.30;92.20;;;;;;5040478;28;20459;-77
2021/08/08 01:39:17;;;;;;;12.18;7.47;;;16.30;91.80;;;;;;5043841;28;20033;-78
2021/08/08 01:41:48;;;;;;;15.52;8.55;;;16.20;91.90;;;;;;5042023;28;20025;-77
2021/08/08 01:44:17;;;;;;;18.23;9.55;;;16.20;92.30;;;;;;5054552;28;20055;-78
2021/08/08 01:46:45;;;;;;;17.30;7.70;;;16.20;92.30;;;;;;5053727;28;20021;-78
2021/08/08 01:49:11;;;;;;;20.02;9.13;;;16.20;92.50;;;;;;5053943;28;20052;-79
2021/08/08 01:51:37;;;;;;;17.00;6.90;;;16.20;92.60;;;;;;5035718;28;20027;-77
2021/08/08 01:54:03;;;;;;;14.25;7.80;;;16.20;91.90;;;;;;5035188;28;20017;-77
2021/08/08 01:56:28;;;;;;;20.25;9.25;;;16.20;91.80;;;;;;5035391;28;20457;-78
2021/08/08 01:58:55;;;;;;;10.85;8.38;;;16.30;92.10;;;;;;5053560;28;20094;-78
2021/08/08 02:01:26;;;;;;;21.02;10.77;;;16.20;92.00;;;;;;5035289;28;20111;-77
2021/08/08 02:03:52;;;;;;;23.27;11.90;;;16.20;92.70;;;;;;5035411;28;20033;-78
2021/08/08 02:06:18;;;;;;;16.65;10.10;;;16.20;92.60;;;;;;5052006;28;20381;-77
2021/08/08 02:08:43;;;;;;;19.30;11.68;;;16.20;92.40;;;;;;5035582;28;20040;-78
2021/08/08 02:11:09;;;;;;;18.55;9.13;;;16.10;93.00;;;;;;5035594;28;20078;-78
2021/08/08 02:13:34;;;;;;;24.83;13.77;;;16.20;93.00;;;;;;5035596;28;20116;-78
2021/08/08 02:16:00;;;;;;;15.93;10.73;;;16.10;93.30;;;;;;5034903;28;20488;-78
2021/08/08 02:18:26;;;;;;;13.40;8.00;;;16.10;93.10;;;;;;5035268;28;20039;-77
2021/08/08 02:20:51;;;;;;;23.00;9.50;;;16.10;93.00;;;;;;5035392;28;20358;-77
2021/08/08 02:23:17;;;;;;;22.05;10.45;;;16.10;93.00;;;;;;5034946;28;20013;-77
2021/08/08 02:25:43;;;;;;;19.90;10.10;;;16.10;92.90;;;;;;5032698;28;20025;-77
2021/08/08 02:28:09;;;;;;;20.50;11.68;;;16.10;92.80;;;;;;5053281;28;20132;-77
2021/08/08 02:30:36;;;;;;;27.25;10.65;;;16.10;92.70;;;;;;5053096;28;20628;-76
2021/08/08 02:33:03;;;;;;;20.77;12.00;;;16.10;93.00;;;;;;5035661;28;20064;-77
2021/08/08 02:35:28;;;;;;;23.58;11.82;;;16.10;93.10;;;;;;5053339;28;20021;-77
2021/08/08 02:37:54;;;;;;;25.88;11.02;;;16.10;93.10;;;;;;5035402;28;20040;-78
2021/08/08 02:40:20;;;;;;;19.27;10.25;;;16.10;93.10;;;;;;5035413;28;20405;-78
2021/08/08 02:42:46;;;;;;;19.27;9.38;;;16.10;93.00;;;;;;5040198;28;20005;-79
2021/08/08 02:45:11;;;;;;;25.67;11.20;;;16.10;93.00;;;;;;5050763;28;20163;-79
2021/08/08 02:47:37;;;;;;;23.27;10.52;;;16.10;92.80;;;;;;5031250;28;20120;-79
2021/08/08 02:50:05;;;;;;;25.00;11.05;;;16.10;92.90;;;;;;5052151;28;20021;-80
2021/08/08 02:52:30;;;;;;;25.55;11.35;;;16.10;92.80;;;;;;5034417;28;20033;-79
2021/08/08 02:54:56;;;;;;;20.50;9.15;;;16.10;92.90;;;;;;5034964;28;20071;-78
2021/08/08 02:57:22;;;;;;;18.48;8.40;;;16.10;92.80;;;;;;5034558;28;20017;-78
2021/08/08 02:59:47;;;;;;;15.48;7.75;;;16.10;92.60;;;;;;5034502;28;20029;-79
2021/08/08 03:02:13;;;;;;;26.58;10.95;;;16.10;92.50;;;;;;5034521;28;20029;-78
2021/08/08 03:04:38;;;;;;;18.20;7.85;;;16.10;92.40;;;;;;5052419;28;20029;-78
2021/08/08 03:07:04;;;;;;;20.75;7.72;;;16.10;92.00;;;;;;5052323;28;20037;-78
2021/08/08 03:09:31;;;;;;;16.50;8.65;;;16.10;92.00;;;;;;5034593;28;20074;-78
2021/08/08 03:11:57;;;;;;;30.33;8.77;;;16.10;92.00;;;;;;5040276;28;20025;-77
2021/08/08 03:14:22;;;;;;;20.88;9.32;;;16.10;92.10;;;;;;5047748;28;20029;-77
2021/08/08 03:16:48;;;;;;;21.80;9.52;;;16.10;91.80;;;;;;5051632;28;20025;-77
2021/08/08 03:19:15;;;;;;;24.45;11.38;;;16.10;92.00;;;;;;5044285;28;20029;-78
2021/08/08 03:21:42;;;;;;;15.55;7.28;;;16.10;92.00;;;;;;5035173;28;20033;-79
2021/08/08 03:24:07;;;;;;;21.55;9.38;;;16.10;92.00;;;;;;5034694;28;20036;-78
2021/08/08 03:26:33;;;;;;;22.50;8.35;;;16.10;91.80;;;;;;5030792;28;20026;-78
2021/08/08 03:28:59;;;;;;;13.68;7.63;;;16.10;92.00;;;;;;5050543;28;20030;-78
2021/08/08 03:31:27;;;;;;;21.45;8.55;;;16.10;92.00;;;;;;5037832;28;20049;-78
2021/08/08 03:33:56;;;;;;;20.50;9.77;;;16.00;91.90;;;;;;5056441;28;20079;-79
2021/08/08 03:36:23;;;;;;;17.67;8.43;;;16.10;92.20;;;;;;5038219;28;20025;-79
2021/08/08 03:38:49;;;;;;;22.33;9.20;;;16.10;92.00;;;;;;5036051;28;20030;-78
2021/08/08 03:41:15;;;;;;;15.18;7.03;;;16.00;92.30;;;;;;5038442;28;20023;-79
2021/08/08 03:43:41;;;;;;;22.77;7.53;;;16.10;92.40;;;;;;5034876;28;20037;-78
2021/08/08 03:46:06;;;;;;;16.73;5.80;;;16.10;92.30;;;;;;5043484;28;20021;-79
2021/08/08 03:48:32;;;;;;;19.02;6.70;;;16.10;91.30;;;;;;5025255;28;20108;-77
2021/08/08 03:50:58;;;;;;;23.15;7.80;;;16.10;91.60;;;;;;5038414;28;20385;-79
2021/08/08 03:53:23;;;;;;;16.77;7.03;;;16.10;92.00;;;;;;5038288;28;20025;-79
2021/08/08 03:55:49;;;;;;;12.13;6.03;;;16.10;92.20;;;;;;5036233;28;20120;-78
2021/08/08 03:58:15;;;;;;;24.25;7.50;;;16.10;91.60;;;;;;5038237;28;20029;-79
2021/08/08 04:00:40;;;;;;;18.45;5.90;;;16.10;91.90;;;;;;5056052;28;20060;-78
2021/08/08 04:03:06;;;;;;;16.40;6.80;;;16.10;91.80;;;;;;5037974;28;20017;-78
2021/08/08 04:05:32;;;;;;;21.45;6.90;;;16.00;91.80;;;;;;5037604;28;20021;-80
2021/08/08 04:07:58;;;;;;;20.10;6.20;;;16.10;91.90;;;;;;5037829;28;20021;-78
2021/08/08 04:10:23;;;;;;;20.52;6.38;;;16.10;91.70;;;;;;5017627;28;20026;-79
2021/08/08 04:12:49;;;;;;;16.13;5.95;;;16.00;91.30;;;;;;5033615;28;20462;-79
2021/08/08 04:15:14;;;;;;;18.98;7.03;;;16.10;91.60;;;;;;5056734;28;20028;-79
2021/08/08 04:17:40;;;;;;;26.23;6.93;;;16.00;91.70;;;;;;5041258;28;20465;-79
2021/08/08 04:20:06;;;;;;;20.70;7.05;;;16.00;91.80;;;;;;5047114;28;20036;-80
2021/08/08 04:22:32;;;;;;;19.33;6.78;;;16.00;91.90;;;;;;5064120;28;20029;-80
2021/08/08 04:24:57;;;;;;;27.10;8.65;;;16.00;91.90;;;;;;5043419;28;20412;-79
2021/08/08 04:27:23;;;;;;;26.40;7.22;;;16.00;92.00;;;;;;5056371;28;20036;-79
2021/08/08 04:29:48;;;;;;;11.85;5.40;;;16.00;92.30;;;;;;5055207;28;20111;-79
2021/08/08 04:32:14;;;;;;;17.42;6.63;;;15.90;91.80;;;;;;5037604;28;20025;-80
2021/08/08 04:34:40;;;;;;;13.70;5.63;;;16.00;91.80;;;;;;5033846;28;20098;-79
2021/08/08 04:37:05;;;;;;;23.95;7.65;;;16.00;91.60;;;;;;5050805;28;20021;-78
2021/08/08 04:39:31;;;;;;;15.48;5.90;;;16.00;91.40;;;;;;5035127;28;20038;-79
2021/08/08 04:41:57;;;;;;;13.68;6.40;;;16.00;91.50;;;;;;5052693;28;20029;-78
2021/08/08 04:44:22;;;;;;;22.08;7.65;;;16.00;91.60;;;;;;5037517;28;20366;-79
2021/08/08 04:46:48;;;;;;;20.42;6.88;;;16.00;91.90;;;;;;5057587;28;20028;-80
2021/08/08 04:49:14;;;;;;;13.73;5.63;;;16.00;91.60;;;;;;5075733;28;20037;-78
2021/08/08 04:51:41;;;;;;;20.20;5.93;;;16.00;91.40;;;;;;5058184;28;20078;-78
2021/08/08 04:54:08;;;;;;;18.35;6.40;;;16.00;90.70;;;;;;5036994;28;20031;-78
2021/08/08 04:56:34;;;;;;;13.95;5.55;;;16.00;91.10;;;;;;5035180;28;20021;-78
2021/08/08 04:59:00;;;;;;;16.65;6.82;;;16.00;91.20;;;;;;5036555;28;20402;-77
2021/08/08 05:01:25;;;;;;;16.40;7.10;;;16.10;91.00;;;;;;5040466;28;20117;-78
2021/08/08 05:03:51;;;;;;;19.80;6.20;;;16.10;91.10;;;;;;5050008;28;20097;-78
2021/08/08 05:06:16;;;;;;;15.73;7.30;;;16.10;90.70;;;;;;5054257;28;20079;-78
2021/08/08 05:08:42;;;;;;;20.90;6.75;;;16.20;90.90;;;;;;5044712;28;20025;-78
2021/08/08 05:11:08;;;;;;;25.55;7.82;;;16.20;91.20;;;;;;5038093;28;20438;-78
2021/08/08 05:13:33;;;;;;;20.20;7.32;;;16.20;91.10;;;;;;5036729;28;20500;-78
2021/08/08 05:15:59;;;;;;;25.02;7.90;;;16.20;90.90;;;;;;5036550;28;20359;-79
2021/08/08 05:18:25;;;;;;;19.23;6.32;;;16.20;91.20;;;;;;5036663;28;20086;-79
2021/08/08 05:20:51;;;;;;;20.02;5.97;;;16.20;90.60;;;;;;5054190;28;20395;-78
2021/08/08 05:23:16;;;;;;;20.08;6.32;;;16.20;90.60;;;;;;5036385;28;20017;-79
2021/08/08 05:25:42;;;;;;;19.85;7.10;;;16.30;90.50;;;;;;5053741;28;20493;-79
2021/08/08 05:28:07;;;;;;;15.38;5.57;;;16.30;90.30;;;;;;5036241;28;20111;-79
2021/08/08 05:30:33;;;;;;;13.32;5.53;;;16.30;90.40;;;;;;5036101;28;20453;-78
2021/08/08 05:32:58;;;;;;;12.20;5.15;;;16.30;90.50;;;;;;5036514;28;20033;-79
2021/08/08 05:35:24;;;;;;;16.92;5.43;;;16.30;90.50;;;;;;5054339;28;20061;-79
2021/08/08 05:37:50;;;;;;;18.48;5.35;;;16.30;90.50;;;;;;5036003;28;20036;-79
2021/08/08 05:40:15;;;;;;;16.95;5.68;;;16.30;90.60;;;;;;5036151;28;20021;-79
2021/08/08 05:42:48;;;;;;;25.42;5.93;;;16.30;90.00;;;;;;5032545;28;20021;-79
2021/08/08 05:45:14;;;;;;;19.23;5.75;;;16.30;90.20;;;;;;5035977;28;20017;-79
2021/08/08 05:47:40;;;;;;;22.52;6.53;;;16.30;90.30;;;;;;5035465;28;20484;-79
2021/08/08 05:50:06;;;;;;;15.30;5.43;;;16.30;90.20;;;;;;5032522;28;20025;-78
2021/08/08 05:52:32;;;;;;;19.25;5.05;;;16.30;90.10;;;;;;5030474;28;20132;-79
2021/08/08 05:55:00;;;;;;;15.73;5.10;;;16.30;90.20;;;;;;5035434;28;20029;-79
2021/08/08 05:57:26;;;;;;;20.45;5.05;;;16.40;90.10;;;;;;5035598;28;20040;-77
2021/08/08 05:59:52;;;;;;;18.83;5.63;;;16.40;90.20;;;;;;5035194;28;20029;-78
2021/08/08 06:02:17;;;;;;;18.92;5.38;;;16.40;90.20;;;;;;5053355;28;20021;-78
2021/08/08 06:04:46;;;;;;;14.75;5.10;;;16.40;90.00;;;;;;5035428;28;20040;-78
2021/08/08 06:07:12;;;;;;;13.55;4.57;;;16.40;88.90;;;;;;5035578;28;20020;-79
2021/08/08 06:09:38;;;;;;;15.88;4.65;;;16.40;89.30;;;;;;5035407;28;20094;-78
2021/08/08 06:12:03;;;;;;;15.73;4.78;;;16.50;88.50;;;;;;5035456;28;20021;-79
2021/08/08 06:14:29;;;;;;;21.63;6.00;;;16.50;89.00;;;;;;5052926;28;20029;-79
2021/08/08 06:16:55;;;;;;;17.85;5.65;;;16.50;89.40;;;;;;5037109;28;20048;-80
2021/08/08 06:19:20;;;;;;;17.85;5.72;;;16.50;89.40;;;;;;5036474;28;20156;-79
2021/08/08 06:21:46;;;;;;;16.23;4.50;;;16.60;88.20;;;;;;5035249;28;20369;-79
2021/08/08 06:24:11;;;;;;;18.20;4.32;;;16.70;88.20;;;;;;5053759;28;20061;-79
2021/08/08 06:26:37;;;;;;;17.05;4.32;;;16.80;87.20;;;;;;5035341;28;20028;-78
2021/08/08 06:29:05;;;;;;;18.42;5.68;;;16.90;87.30;;;;;;5035181;28;20024;-79
2021/08/08 06:31:32;;;;;;;18.98;6.35;;;16.90;87.50;;;;;;5035355;28;20025;-79
2021/08/08 06:33:58;;;;;;;21.73;6.50;;;17.00;87.20;;;;;;5053702;28;20028;-79
2021/08/08 06:36:24;;;;;;;18.38;4.75;;;16.90;87.00;;;;;;5035768;28;20029;-79
2021/08/08 06:38:51;;;;;;;19.98;5.20;;;16.90;86.80;;;;;;5035229;28;20488;-79
2021/08/08 06:41:17;;;;;;;19.27;5.30;;;16.90;86.60;;;;;;5034974;28;20052;-79
2021/08/08 06:43:42;;;;;;;15.52;5.03;;;16.90;86.50;;;;;;5032100;28;20057;-80
2021/08/08 06:46:08;;;;;;;22.95;5.57;;;16.80;86.30;;;;;;5036178;28;20055;-79
2021/08/08 06:48:35;;;;;;;12.25;4.45;;;16.80;86.70;;;;;;5036599;28;20522;-79
2021/08/08 06:51:08;;;;;;;15.20;4.60;;;16.80;86.90;;;;;;5062650;28;20265;-79
2021/08/08 06:53:33;;;;;;;18.20;5.40;;;16.90;86.50;;;;;;5053837;28;20016;-79
2021/08/08 06:55:59;;;;;;;14.18;5.70;;;16.80;87.10;;;;;;5052602;28;20096;-79
2021/08/08 06:58:25;;;;;;;15.55;4.70;;;16.90;86.50;;;;;;5041806;28;20048;-79
2021/08/08 07:00:51;;;;;;;17.40;5.05;;;16.90;86.30;;;;;;5059893;28;20461;-79
2021/08/08 07:03:16;;;;;;;15.02;4.45;;;17.00;85.90;;;;;;5044191;28;20055;-79
2021/08/08 07:05:42;;;;;;;16.48;4.68;;;17.00;85.60;;;;;;5041702;28;20021;-79
2021/08/08 07:08:09;;;;;;;14.35;4.40;;;17.10;85.20;;;;;;5058144;28;20025;-79
2021/08/08 07:10:34;;;;;;;23.08;5.95;;;17.10;84.90;;;;;;5035720;28;20037;-79
2021/08/08 07:13:00;;;;;;;20.10;5.03;;;17.20;84.20;;;;;;5035483;28;20025;-79
2021/08/08 07:15:26;;;;;;;14.65;4.13;;;17.30;84.10;;;;;;5035044;28;20134;-79
2021/08/08 07:17:51;;;;;;;23.58;6.03;;;17.30;83.30;;;;;;5034760;28;20021;-80
2021/08/08 07:20:17;;;;;;;20.33;4.75;;;17.30;83.80;;;;;;5052965;28;20425;-79
2021/08/08 07:22:42;;;;;;;11.20;3.60;;;17.40;83.30;;;;;;5052653;28;20048;-80
2021/08/08 07:25:09;;;;;;;19.02;5.70;;;17.50;82.60;;;;;;5052622;28;20029;-79
2021/08/08 07:27:34;;;;;;;19.63;5.65;;;17.70;81.90;;;;;;5034659;28;20440;-79
2021/08/08 07:30:00;;;;;;;14.90;3.85;;;17.80;81.00;;;;;;5033176;28;20254;-79
2021/08/08 07:32:26;;;;;;;17.27;4.70;;;17.80;80.20;;;;;;5067500;28;20033;-79
2021/08/08 07:34:52;;;;;;;19.77;4.82;;;17.80;79.00;;;;;;5041554;28;20061;-79
2021/08/08 07:37:19;;;;;;;14.23;4.00;;;17.70;80.00;;;;;;5031330;28;20117;-80
2021/08/08 07:39:44;;;;;;;14.38;4.85;;;17.80;80.50;;;;;;5023313;28;20037;-79
2021/08/08 07:42:10;;;;;;;16.83;5.10;;;17.80;80.70;;;;;;5026619;28;20167;-79
2021/08/08 07:44:36;;;;;;;18.20;4.95;;;17.90;79.70;;;;;;5021948;28;20053;-80
2021/08/08 07:47:02;;;;;;;16.95;4.60;;;18.00;79.20;;;;;;5024934;28;20055;-80
2021/08/08 07:49:28;;;;;;;16.77;4.85;;;18.10;79.10;;;;;;5025588;28;20028;-79
2021/08/08 07:51:54;;;;;;;17.83;4.13;;;18.20;78.50;;;;;;5026558;28;20496;-79
2021/08/08 07:54:21;;;;;;;22.23;5.18;;;18.20;78.20;;;;;;5022196;28;20483;-80
2021/08/08 07:56:46;;;;;;;16.98;4.30;;;18.20;77.20;;;;;;5049934;28;20029;-80
2021/08/08 07:59:12;;;;;;;14.70;3.75;;;18.30;76.90;;;;;;5034695;28;20033;-80
2021/08/08 08:01:39;;;;;;;15.25;4.45;;;18.30;76.30;;;;;;5034143;28;20021;-80
2021/08/08 08:04:04;;;;;;;14.70;4.10;;;18.20;76.40;;;;;;5034389;28;20060;-80
2021/08/08 08:06:30;;;;;;;13.38;4.50;;;18.30;76.80;;;;;;5036204;28;20021;-79
2021/08/08 08:08:55;;;;;;;22.80;5.10;;;18.40;76.70;;;;;;5034423;28;20457;-79
2021/08/08 08:11:21;;;;;;;15.27;4.28;;;18.40;75.30;;;;;;5034956;28;20365;-79
2021/08/08 08:13:47;;;;;;;12.35;4.35;;;18.40;76.60;;;;;;5033673;28;20025;-79
2021/08/08 08:16:13;;;;;;;15.23;3.47;;;18.40;76.90;;;;;;5054215;28;20028;-80
2021/08/08 08:18:39;;;;;;;15.98;5.30;;;18.40;75.90;;;;;;5037605;28;20036;-80
2021/08/08 08:21:04;;;;;;;11.88;3.40;;;18.40;74.60;;;;;;5038163;28;20029;-80
2021/08/08 08:23:30;;;;;;;19.50;4.57;;;18.40;74.30;;;;;;5055582;28;20124;-80
2021/08/08 08:25:56;;;;;;;9.07;3.92;;;18.50;73.80;;;;;;5037843;28;20458;-80
2021/08/08 08:28:21;;;;;;;12.70;3.30;;;18.60;73.10;;;;;;5037667;28;20025;-79
2021/08/08 08:30:47;;;;;;;16.55;4.18;;;18.80;74.10;;;;;;5037230;28;20104;-81
2021/08/08 08:33:12;;;;;;;11.10;3.67;;;19.00;71.90;;;;;;5037651;28;20032;-80
2021/08/08 08:35:38;;;;;;;11.00;3.22;;;19.20;71.80;;;;;;5037200;28;20025;-80
2021/08/08 08:38:04;;;;;;;12.13;3.78;;;19.40;71.30;;;;;;5039842;28;20032;-80
2021/08/08 08:40:34;;;;;;;14.68;3.30;;;19.50;71.60;;;;;;5064055;28;20369;-80
2021/08/08 08:43:02;;;;;;;15.05;4.47;;;19.60;69.50;;;;;;5058350;28;20025;-80
2021/08/08 08:45:28;;;;;;;15.15;3.78;;;19.60;69.90;;;;;;5054366;28;20032;-80
2021/08/08 08:47:55;;;;;;;11.82;2.88;;;19.60;70.90;;;;;;5041289;28;20021;-79
2021/08/08 08:50:23;;;;;;;10.70;3.42;;;19.60;70.30;;;;;;5038371;28;20120;-80
2021/08/08 08:52:51;;;;;;;7.28;2.45;;;19.60;70.20;;;;;;5056112;28;20392;-80
2021/08/08 08:55:17;;;;;;;10.68;3.25;;;19.60;70.40;;;;;;5049324;28;20037;-80
2021/08/08 08:57:44;;;;;;;16.90;3.55;;;19.60;70.20;;;;;;5049749;28;20029;-80
2021/08/08 09:00:11;;;;;;;18.10;3.85;;;19.70;70.40;;;;;;5038540;28;20037;-80
2021/08/08 09:02:38;;;;;;;13.88;3.58;;;19.70;69.40;;;;;;5038572;28;20029;-80
2021/08/08 09:05:04;;;;;;;15.75;4.40;;;19.80;70.90;;;;;;5037623;28;20032;-81
2021/08/08 09:07:29;;;;;;;11.25;3.00;;;19.70;69.40;;;;;;5037510;28;20059;-81
2021/08/08 09:09:56;;;;;;;13.10;3.60;;;19.80;69.40;;;;;;5056220;28;20025;-81
2021/08/08 09:12:24;;;;;;;13.63;3.15;;;20.00;70.10;;;;;;5055746;28;20029;-81
2021/08/08 09:15:04;;;;;;;13.55;3.00;;;20.00;70.20;;;;;;5037716;28;20047;-80
2021/08/08 09:17:39;;;;;;;13.30;3.45;;;20.00;69.40;;;;;;5055938;28;20017;-80
2021/08/08 09:20:10;;;;;;;13.13;3.08;;;19.90;68.70;;;;;;5037014;28;20060;-81
2021/08/08 09:22:37;;;;;;;11.35;2.78;;;19.90;69.60;;;;;;5055462;28;20029;-81
2021/08/08 09:25:03;;;;;;;6.93;2.25;;;20.00;70.50;;;;;;5037491;28;20346;-81
2021/08/08 09:27:35;;;;;;;13.57;3.22;;;20.20;68.10;;;;;;5037320;28;20106;-81
2021/08/08 09:30:04;;;;;;;13.07;2.80;;;20.20;68.70;;;;;;5038776;28;20036;-82
2021/08/08 09:32:32;;;;;;;12.57;3.00;;;20.10;68.70;;;;;;5044715;28;20017;-80
2021/08/08 09:35:19;;;;;;;16.42;3.42;;;20.10;68.60;;;;;;5039456;28;20032;-81
2021/08/08 09:37:57;;;;;;;12.10;3.35;;;20.00;68.70;;;;;;5037566;28;20021;-81
2021/08/08 09:40:24;;;;;;;9.07;3.00;;;20.00;68.90;;;;;;5038152;28;20045;-81
2021/08/08 09:42:51;;;;;;;13.73;3.63;;;19.90;69.90;;;;;;5039197;28;20028;-82
2021/08/08 09:45:17;;;;;;;15.05;4.13;;;19.90;68.60;;;;;;5062359;28;20029;-81
2021/08/08 09:47:51;;;;;;;12.75;3.28;;;20.00;67.80;;;;;;5043817;28;20086;-81
2021/08/08 09:50:18;;;;;;;8.63;2.83;;;20.00;67.90;;;;;;5043119;28;20029;-81
2021/08/08 09:52:53;;;;;;;12.77;3.20;;;19.90;69.40;;;;;;5033933;28;20017;-83
2021/08/08 09:55:44;;;;;;;10.02;3.10;;;19.80;67.90;;;;;;5054445;28;20496;-81
2021/08/08 09:58:22;;;;;;;9.35;2.97;;;19.70;68.20;;;;;;5042894;28;20028;-82
2021/08/08 10:00:57;;;;;;;11.45;3.55;;;19.70;68.90;;;;;;5039816;28;20051;-81
2021/08/08 10:03:23;;;;;;;12.85;4.20;;;19.80;67.40;;;;;;5035435;28;20050;-81
2021/08/08 10:05:52;;;;;;;13.50;3.58;;;19.80;69.00;;;;;;5030317;28;20022;-82
2021/08/08 10:08:21;;;;;;;9.27;3.17;;;19.80;68.70;;;;;;5049317;28;20037;-82
2021/08/08 10:10:49;;;;;;;10.05;2.80;;;19.80;68.80;;;;;;5049170;28;20018;-81
2021/08/08 10:13:33;;;;;;;10.85;3.05;;;19.80;66.80;;;;;;5049308;28;20087;-82
2021/08/08 10:16:00;;;;;;;10.95;3.50;;;19.90;68.70;;;;;;5048874;28;20022;-82
2021/08/08 10:18:30;;;;;;;9.15;2.85;;;20.00;67.10;;;;;;5048953;28;20072;-82
2021/08/08 10:20:56;;;;;;;10.80;2.93;;;20.20;66.70;;;;;;5034423;28;20051;-82
2021/08/08 10:23:23;;;;;;;9.38;2.75;;;20.50;66.70;;;;;;5049505;28;20510;-82
2021/08/08 10:25:51;;;;;;;14.68;3.47;;;20.50;67.90;;;;;;5049942;28;20026;-82
2021/08/08 10:28:19;;;;;;;10.13;3.00;;;20.50;66.00;;;;;;5057434;28;20030;-82
2021/08/08 10:30:45;;;;;;;11.40;2.97;;;20.50;66.40;;;;;;5065604;28;20029;-81
2021/08/08 10:33:11;;;;;;;10.40;2.42;;;20.90;65.00;;;;;;5052683;28;20065;-81
2021/08/08 10:35:45;;;;;;;11.38;3.42;;;21.20;63.70;;;;;;5026061;28;20028;-82
2021/08/08 10:38:13;;;;;;;7.88;2.33;;;21.30;60.80;;;;;;5049344;28;20036;-81
2021/08/08 10:40:40;;;;;;;14.63;2.97;;;21.30;64.00;;;;;;5048650;28;20418;-82
2021/08/08 10:43:07;;;;;;;11.40;2.58;;;21.40;62.20;;;;;;5048576;28;20029;-82
2021/08/08 10:45:35;;;;;;;10.55;3.00;;;21.50;62.90;;;;;;5049789;28;20030;-82
2021/08/08 10:48:03;;;;;;;10.80;2.80;;;21.50;64.20;;;;;;5048272;28;20074;-82
2021/08/08 10:50:39;;;;;;;10.85;2.58;;;21.30;62.50;;;;;;5015942;28;20124;-81
2021/08/08 10:53:05;;;;;;;10.57;2.40;;;21.00;62.40;;;;;;5032487;28;20029;-82
2021/08/08 10:55:32;;;;;;;12.02;2.80;;;20.90;63.50;;;;;;5015981;28;20036;-82
2021/08/08 10:58:00;;;;;;;7.90;2.22;;;20.90;64.80;;;;;;5038287;28;20065;-82
2021/08/08 11:00:34;;;;;;;12.50;3.40;;;20.90;67.80;;;;;;5065979;28;20081;-80
2021/08/08 11:03:12;;;;;;;10.27;3.15;;;21.00;69.10;;;;;;5051874;28;20048;-82
2021/08/08 11:05:38;;;;;;;8.73;2.95;;;20.90;67.20;;;;;;5039591;28;20044;-83
2021/08/08 11:08:05;;;;;;;11.07;3.35;;;20.90;65.70;;;;;;5061166;28;20028;-82
2021/08/08 11:10:31;;;;;;;6.88;2.50;;;20.70;65.20;;;;;;5035239;28;20025;-81
2021/08/08 11:12:57;;;;;;;8.20;2.40;;;20.60;69.10;;;;;;5034961;28;20437;-82
2021/08/08 11:15:35;;;;;;;14.18;3.67;;;20.60;68.40;;;;;;5035143;28;20021;-82
2021/08/08 11:18:02;;;;;;;8.88;3.15;;;20.60;68.20;;;;;;5034575;28;20567;-82
2021/08/08 11:20:29;;;;;;;12.32;3.67;;;20.50;68.60;;;;;;5035231;28;20052;-82
2021/08/08 11:23:02;;;;;;;11.82;3.58;;;20.60;67.50;;;;;;5035407;28;20178;-82
2021/08/08 11:25:41;;;;;;;8.02;2.75;;;20.80;68.50;;;;;;5035231;28;20106;-82
2021/08/08 11:28:08;;;;;;;16.10;3.37;;;21.00;66.70;;;;;;5034781;28;20025;-82
2021/08/08 11:30:39;;;;;;;10.93;2.70;;;21.10;67.10;;;;;;5035056;28;20021;-83
2021/08/08 11:33:05;;;;;;;12.00;2.90;;;21.10;67.40;;;;;;5035352;28;20036;-82
2021/08/08 11:35:31;;;;;;;8.93;2.33;;;21.20;63.40;;;;;;5035803;28;20025;-82
2021/08/08 11:37:56;;;;;;;15.05;3.17;;;21.10;66.70;;;;;;5035187;28;20432;-82
2021/08/08 11:40:22;;;;;;;9.65;2.90;;;21.00;62.20;;;;;;5034767;28;20037;-83
2021/08/08 11:42:56;;;;;;;9.48;2.28;;;20.90;69.20;;;;;;5051530;28;20041;-83
2021/08/08 11:45:51;;;;;;;8.70;2.72;;;20.80;68.60;;;;;;5035417;28;20025;-82
2021/08/08 11:48:20;;;;;;;11.95;2.50;;;20.80;66.80;;;;;;5019858;28;20056;-81
2021/08/08 11:51:03;;;;;;;7.50;3.03;;;20.80;64.80;;;;;;5039588;28;20011;-83
2021/08/08 11:53:34;;;;;;;11.48;2.60;;;20.90;68.30;;;;;;5039907;28;20021;-83
2021/08/08 11:56:22;;;;;;;9.00;1.95;;;21.20;68.00;;;;;;5039575;28;20083;-82
2021/08/08 11:58:51;;;;;;;11.65;2.30;;;21.40;67.90;;;;;;5038837;28;20017;-82
2021/08/08 12:01:20;;;;;;;6.78;2.17;;;21.60;64.00;;;;;;5057711;28;20036;-83
2021/08/08 12:03:46;;;;;;;7.47;1.67;;;21.60;62.50;;;;;;5040123;28;20078;-83
2021/08/08 12:06:12;;;;;;;6.63;1.83;;;21.80;63.40;;;;;;5039933;28;20076;-83
2021/08/08 12:08:39;;;;;;;5.90;1.73;;;21.80;66.00;;;;;;5040919;28;20036;-83
2021/08/08 12:11:05;;;;;;;7.68;2.38;;;22.00;65.10;;;;;;5040463;28;20029;-84
2021/08/08 12:13:31;;;;;;;8.60;2.47;;;22.10;64.50;;;;;;5042498;28;20036;-83
2021/08/08 12:15:56;;;;;;;9.65;2.22;;;22.30;65.00;;;;;;5043429;28;20029;-83
2021/08/08 12:18:30;;;;;;;10.00;2.60;;;22.30;64.40;;;;;;5046091;28;20028;-83
2021/08/08 12:20:55;;;;;;;9.23;2.20;;;22.10;65.50;;;;;;5058714;28;20017;-82
2021/08/08 12:23:25;;;;;;;8.60;1.98;;;21.80;64.50;;;;;;5053785;28;20036;-82
2021/08/08 12:25:59;;;;;;;5.35;1.60;;;21.70;66.40;;;;;;5044493;28;20464;-83
2021/08/08 12:28:27;;;;;;;8.00;2.35;;;21.60;66.40;;;;;;5044754;28;20025;-83
2021/08/08 12:31:09;;;;;;;5.47;1.75;;;21.50;65.10;;;;;;5049138;28;20020;-83
2021/08/08 12:33:35;;;;;;;5.70;1.70;;;21.40;68.50;;;;;;5046109;28;20295;-82
2021/08/08 12:36:12;;;;;;;8.77;1.90;;;21.40;67.00;;;;;;5038435;28;20294;-84
2021/08/08 12:38:51;;;;;;;10.57;2.42;;;21.30;67.00;;;;;;5039424;28;20044;-84